sensor_id;sensor_type;location;lat;lon;timestamp;pressure;altitude;pressure_sealevel;temperature;humidity
48774;BME280;34576;0.000;0.000;2023-05-13T00:06:31;96494.97;;;18.20;68.28
48774;BME280;34576;0.000;0.000;2023-05-13T00:13:32;96497.13;;;18.18;68.17
48774;BME280;34576;0.000;0.000;2023-05-13T00:20:32;96504.03;;;18.19;68.18
48774;BME280;34576;0.000;0.000;2023-05-13T00:27:33;96497.66;;;18.20;68.36
48774;BME280;34576;0.000;0.000;2023-05-13T00:34:33;96494.69;;;18.22;67.98
48774;BME280;34576;0.000;0.000;2023-05-13T00:41:33;96495.47;;;18.22;68.05
48774;BME280;34576;0.000;0.000;2023-05-13T00:48:34;96489.66;;;18.20;69.49
48774;BME280;34576;0.000;0.000;2023-05-13T00:55:34;96485.94;;;18.21;68.33
48774;BME280;34576;0.000;0.000;2023-05-13T01:02:44;96488.06;;;18.19;68.48
48774;BME280;34576;0.000;0.000;2023-05-13T01:09:50;96480.59;;;18.21;68.32
48774;BME280;34576;0.000;0.000;2023-05-13T01:17:01;96492.31;;;18.20;68.15
48774;BME280;34576;0.000;0.000;2023-05-13T01:24:03;96488.34;;;18.18;68.55
48774;BME280;34576;0.000;0.000;2023-05-13T01:31:03;96481.13;;;18.18;68.14
48774;BME280;34576;0.000;0.000;2023-05-13T01:38:04;96479.00;;;18.20;68.14
48774;BME280;34576;0.000;0.000;2023-05-13T01:45:05;96480.06;;;18.19;68.35
48774;BME280;34576;0.000;0.000;2023-05-13T01:52:06;96481.13;;;18.18;68.16
48774;BME280;34576;0.000;0.000;2023-05-13T01:59:06;96486.47;;;18.18;68.46
48774;BME280;34576;0.000;0.000;2023-05-13T02:06:07;96490.22;;;18.17;68.39
48774;BME280;34576;0.000;0.000;2023-05-13T02:13:07;96499.28;;;18.16;68.06
48774;BME280;34576;0.000;0.000;2023-05-13T02:20:08;96504.31;;;18.18;68.32
48774;BME280;34576;0.000;0.000;2023-05-13T02:27:09;96505.91;;;18.19;68.47
48774;BME280;34576;0.000;0.000;2023-05-13T02:34:11;96503.53;;;18.17;68.44
48774;BME280;34576;0.000;0.000;2023-05-13T02:41:12;96509.13;;;18.16;68.26
48774;BME280;34576;0.000;0.000;2023-05-13T02:48:12;96516.03;;;18.17;68.36
48774;BME280;34576;0.000;0.000;2023-05-13T02:55:15;96508.09;;;18.11;68.41
48774;BME280;34576;0.000;0.000;2023-05-13T03:02:15;96496.09;;;18.14;68.16
48774;BME280;34576;0.000;0.000;2023-05-13T03:09:16;96492.91;;;18.12;68.24
48774;BME280;34576;0.000;0.000;2023-05-13T03:16:17;96482.78;;;18.14;68.30
48774;BME280;34576;0.000;0.000;2023-05-13T03:23:18;96495.31;;;18.14;68.23
48774;BME280;34576;0.000;0.000;2023-05-13T03:30:21;96491.84;;;18.13;68.21
48774;BME280;34576;0.000;0.000;2023-05-13T03:37:30;96492.91;;;18.12;68.58
48774;BME280;34576;0.000;0.000;2023-05-13T03:44:30;96498.25;;;18.12;68.17
48774;BME280;34576;0.000;0.000;2023-05-13T03:51:31;96497.75;;;18.10;68.44
48774;BME280;34576;0.000;0.000;2023-05-13T03:58:33;96513.44;;;18.11;68.46
48774;BME280;34576;0.000;0.000;2023-05-13T04:05:34;96516.88;;;18.12;68.25
48774;BME280;34576;0.000;0.000;2023-05-13T04:12:34;96515.81;;;18.13;68.29
48774;BME280;34576;0.000;0.000;2023-05-13T04:19:35;96526.75;;;18.11;68.57
48774;BME280;34576;0.000;0.000;2023-05-13T04:26:36;96532.06;;;18.11;68.38
48774;BME280;34576;0.000;0.000;2023-05-13T04:33:36;96538.75;;;18.09;68.64
48774;BME280;34576;0.000;0.000;2023-05-13T04:40:37;96547.50;;;18.09;68.35
48774;BME280;34576;0.000;0.000;2023-05-13T04:47:41;96547.50;;;18.09;68.40
48774;BME280;34576;0.000;0.000;2023-05-13T04:54:42;96552.50;;;18.21;70.54
48774;BME280;34576;0.000;0.000;2023-05-13T05:01:43;96556.41;;;18.29;70.04
48774;BME280;34576;0.000;0.000;2023-05-13T05:08:43;96546.03;;;18.27;71.00
48774;BME280;34576;0.000;0.000;2023-05-13T05:15:43;96552.69;;;18.30;71.06
48774;BME280;34576;0.000;0.000;2023-05-13T05:22:44;96554.81;;;18.28;71.89
48774;BME280;34576;0.000;0.000;2023-05-13T05:29:46;96564.88;;;18.31;72.15
48774;BME280;34576;0.000;0.000;2023-05-13T05:36:47;96559.34;;;18.27;71.69
48774;BME280;34576;0.000;0.000;2023-05-13T05:43:49;96566.28;;;18.28;70.50
48774;BME280;34576;0.000;0.000;2023-05-13T05:50:49;96569.84;;;18.14;68.31
48774;BME280;34576;0.000;0.000;2023-05-13T05:57:57;96572.59;;;17.98;67.06
48774;BME280;34576;0.000;0.000;2023-05-13T06:05:03;96578.25;;;17.91;66.80
48774;BME280;34576;0.000;0.000;2023-05-13T06:12:03;96574.00;;;17.90;66.64
48774;BME280;34576;0.000;0.000;2023-05-13T06:19:06;96598.00;;;14.87;68.47
48774;BME280;34576;0.000;0.000;2023-05-13T06:26:06;96597.91;;;15.24;67.75
48774;BME280;34576;0.000;0.000;2023-05-13T06:33:08;96598.03;;;14.54;68.10
48774;BME280;34576;0.000;0.000;2023-05-13T06:40:10;96597.66;;;14.73;68.48
48774;BME280;34576;0.000;0.000;2023-05-13T06:47:14;96602.97;;;14.40;69.11
48774;BME280;34576;0.000;0.000;2023-05-13T06:54:16;96601.94;;;14.41;69.69
48774;BME280;34576;0.000;0.000;2023-05-13T07:01:16;96599.75;;;14.33;71.02
48774;BME280;34576;0.000;0.000;2023-05-13T07:08:17;96599.22;;;14.69;70.07
48774;BME280;34576;0.000;0.000;2023-05-13T07:15:17;96598.50;;;15.36;66.79
48774;BME280;34576;0.000;0.000;2023-05-13T07:22:18;96611.00;;;15.51;65.79
48774;BME280;34576;0.000;0.000;2023-05-13T07:29:18;96612.22;;;16.48;64.26
48774;BME280;34576;0.000;0.000;2023-05-13T07:36:18;96605.28;;;16.83;66.05
48774;BME280;34576;0.000;0.000;2023-05-13T07:43:19;96612.16;;;17.00;66.30
48774;BME280;34576;0.000;0.000;2023-05-13T07:50:22;96611.34;;;17.15;66.22
48774;BME280;34576;0.000;0.000;2023-05-13T07:57:23;96614.22;;;17.18;66.78
48774;BME280;34576;0.000;0.000;2023-05-13T08:04:24;96608.91;;;17.18;67.26
48774;BME280;34576;0.000;0.000;2023-05-13T08:11:24;96611.28;;;17.25;67.29
48774;BME280;34576;0.000;0.000;2023-05-13T08:18:25;96610.47;;;17.30;67.54
48774;BME280;34576;0.000;0.000;2023-05-13T08:25:25;96608.34;;;17.32;67.53
48774;BME280;34576;0.000;0.000;2023-05-13T08:32:26;96613.13;;;17.35;67.69
48774;BME280;34576;0.000;0.000;2023-05-13T08:39:26;96614.94;;;17.39;67.83
48774;BME280;34576;0.000;0.000;2023-05-13T08:46:26;96620.53;;;17.43;67.88
48774;BME280;34576;0.000;0.000;2023-05-13T08:53:28;96618.38;;;17.45;67.74
48774;BME280;34576;0.000;0.000;2023-05-13T09:00:30;96620.25;;;17.45;67.82
48774;BME280;34576;0.000;0.000;2023-05-13T09:07:31;96620.75;;;17.47;67.95
48774;BME280;34576;0.000;0.000;2023-05-13T09:14:32;96626.88;;;17.47;68.04
48774;BME280;34576;0.000;0.000;2023-05-13T09:21:33;96626.59;;;17.54;67.77
48774;BME280;34576;0.000;0.000;2023-05-13T09:28:35;96622.09;;;17.54;67.81
48774;BME280;34576;0.000;0.000;2023-05-13T09:35:39;96630.56;;;17.56;67.66
48774;BME280;34576;0.000;0.000;2023-05-13T09:42:40;96619.16;;;17.56;67.81
48774;BME280;34576;0.000;0.000;2023-05-13T09:49:42;96630.56;;;17.62;67.80
48774;BME280;34576;0.000;0.000;2023-05-13T09:56:42;96629.47;;;17.63;67.82
48774;BME280;34576;0.000;0.000;2023-05-13T10:03:42;96623.09;;;17.64;67.73
48774;BME280;34576;0.000;0.000;2023-05-13T10:10:43;96624.16;;;17.63;67.99
48774;BME280;34576;0.000;0.000;2023-05-13T10:17:44;96630.50;;;17.67;67.79
48774;BME280;34576;0.000;0.000;2023-05-13T10:24:45;96631.06;;;17.69;67.45
48774;BME280;34576;0.000;0.000;2023-05-13T10:31:46;96622.25;;;17.68;67.03
48774;BME280;34576;0.000;0.000;2023-05-13T10:45:48;96632.63;;;17.70;66.75
48774;BME280;34576;0.000;0.000;2023-05-13T10:52:48;96635.28;;;17.70;66.86
48774;BME280;34576;0.000;0.000;2023-05-13T11:07:14;96624.63;;;17.70;67.08
48774;BME280;34576;0.000;0.000;2023-05-13T11:14:19;96621.19;;;17.69;67.12
48774;BME280;34576;0.000;0.000;2023-05-13T11:21:30;96619.31;;;17.70;66.96
48774;BME280;34576;0.000;0.000;2023-05-13T11:36:00;96621.97;;;17.70;67.03
48774;BME280;34576;0.000;0.000;2023-05-13T11:43:01;96614.00;;;17.70;67.12
48774;BME280;34576;0.000;0.000;2023-05-13T11:50:16;96609.50;;;17.70;67.15
48774;BME280;34576;0.000;0.000;2023-05-13T12:04:17;96601.22;;;17.72;67.06
48774;BME280;34576;0.000;0.000;2023-05-13T12:11:17;96607.63;;;17.71;66.77
48774;BME280;34576;0.000;0.000;2023-05-13T12:18:18;96613.72;;;17.71;67.11
48774;BME280;34576;0.000;0.000;2023-05-13T12:32:34;96613.72;;;17.71;67.06
48774;BME280;34576;0.000;0.000;2023-05-13T12:39:42;96618.78;;;17.73;67.27
48774;BME280;34576;0.000;0.000;2023-05-13T12:46:53;96610.81;;;17.73;67.45
48774;BME280;34576;0.000;0.000;2023-05-13T12:53:54;96612.38;;;17.74;67.30
48774;BME280;34576;0.000;0.000;2023-05-13T13:00:54;96623.56;;;17.76;67.20
48774;BME280;34576;0.000;0.000;2023-05-13T13:07:55;96620.38;;;17.74;67.30
48774;BME280;34576;0.000;0.000;2023-05-13T13:14:55;96619.56;;;17.73;67.33
48774;BME280;34576;0.000;0.000;2023-05-13T13:21:56;96635.25;;;17.75;67.41
48774;BME280;34576;0.000;0.000;2023-05-13T13:28:57;96620.38;;;17.74;67.31
48774;BME280;34576;0.000;0.000;2023-05-13T13:35:57;96621.19;;;17.74;67.45
48774;BME280;34576;0.000;0.000;2023-05-13T13:42:57;96608.94;;;17.73;67.38
48774;BME280;34576;0.000;0.000;2023-05-13T13:49:58;96604.41;;;17.74;67.39
48774;BME280;34576;0.000;0.000;2023-05-13T13:56:58;96600.69;;;17.75;67.44
48774;BME280;34576;0.000;0.000;2023-05-13T14:04:08;96592.97;;;17.73;67.54
48774;BME280;34576;0.000;0.000;2023-05-13T14:11:09;96583.13;;;17.74;67.32
48774;BME280;34576;0.000;0.000;2023-05-13T14:18:09;96577.78;;;17.74;67.55
48774;BME280;34576;0.000;0.000;2023-05-13T14:25:09;96580.19;;;17.75;67.49
48774;BME280;34576;0.000;0.000;2023-05-13T14:32:10;96579.41;;;17.75;67.52
48774;BME280;34576;0.000;0.000;2023-05-13T14:39:10;96571.41;;;17.75;67.60
48774;BME280;34576;0.000;0.000;2023-05-13T14:46:11;96563.44;;;17.75;67.62
48774;BME280;34576;0.000;0.000;2023-05-13T14:53:12;96564.50;;;17.74;67.40
48774;BME280;34576;0.000;0.000;2023-05-13T15:00:12;96568.75;;;17.75;67.43
48774;BME280;34576;0.000;0.000;2023-05-13T15:07:12;96558.09;;;17.75;67.59
48774;BME280;34576;0.000;0.000;2023-05-13T15:14:13;96560.50;;;17.76;67.52
48774;BME280;34576;0.000;0.000;2023-05-13T15:21:16;96558.38;;;17.79;67.42
48774;BME280;34576;0.000;0.000;2023-05-13T15:28:17;96550.63;;;17.77;67.49
48774;BME280;34576;0.000;0.000;2023-05-13T15:35:17;96542.66;;;17.77;67.48
48774;BME280;34576;0.000;0.000;2023-05-13T15:42:17;96536.00;;;17.80;67.47
48774;BME280;34576;0.000;0.000;2023-05-13T15:49:17;96538.66;;;17.80;67.61
48774;BME280;34576;0.000;0.000;2023-05-13T15:56:18;96526.44;;;17.79;67.42
48774;BME280;34576;0.000;0.000;2023-05-13T16:03:20;96539.47;;;17.80;67.62
48774;BME280;34576;0.000;0.000;2023-05-13T16:10:21;96538.94;;;17.78;67.82
48774;BME280;34576;0.000;0.000;2023-05-13T16:17:21;96537.09;;;17.79;67.49
48774;BME280;34576;0.000;0.000;2023-05-13T16:24:22;96539.47;;;17.80;67.48
48774;BME280;34576;0.000;0.000;2023-05-13T16:31:22;96553.03;;;17.79;67.51
48774;BME280;34576;0.000;0.000;2023-05-13T16:38:22;96556.78;;;17.77;67.47
48774;BME280;34576;0.000;0.000;2023-05-13T16:45:24;96564.47;;;17.79;67.55
48774;BME280;34576;0.000;0.000;2023-05-13T16:52:24;96573.50;;;17.78;67.64
48774;BME280;34576;0.000;0.000;2023-05-13T16:59:25;96569.78;;;17.79;67.50
48774;BME280;34576;0.000;0.000;2023-05-13T17:06:26;96590.28;;;17.79;67.44
48774;BME280;34576;0.000;0.000;2023-05-13T17:13:26;96594.81;;;17.78;67.50
48774;BME280;34576;0.000;0.000;2023-05-13T17:20:26;96595.88;;;17.77;67.34
48774;BME280;34576;0.000;0.000;2023-05-13T17:27:26;96594.00;;;17.77;67.43
48774;BME280;34576;0.000;0.000;2023-05-13T17:34:27;96596.97;;;17.76;67.75
48774;BME280;34576;0.000;0.000;2023-05-13T17:41:27;96602.00;;;17.77;67.72
48774;BME280;34576;0.000;0.000;2023-05-13T17:48:27;96598.78;;;17.81;67.53
48774;BME280;34576;0.000;0.000;2023-05-13T17:55:28;96604.09;;;17.81;67.53
48774;BME280;34576;0.000;0.000;2023-05-13T18:02:28;96610.22;;;17.81;67.56
48774;BME280;34576;0.000;0.000;2023-05-13T18:09:28;96614.47;;;17.82;67.70
48774;BME280;34576;0.000;0.000;2023-05-13T18:16:29;96609.69;;;17.79;67.46
48774;BME280;34576;0.000;0.000;2023-05-13T18:23:29;96611.31;;;17.80;67.44
48774;BME280;34576;0.000;0.000;2023-05-13T18:30:29;96604.66;;;17.77;67.57
48774;BME280;34576;0.000;0.000;2023-05-13T18:37:30;96623.78;;;17.80;67.71
48774;BME280;34576;0.000;0.000;2023-05-13T18:44:30;96621.41;;;17.78;67.32
48774;BME280;34576;0.000;0.000;2023-05-13T18:51:33;96636.59;;;17.77;67.55
48774;BME280;34576;0.000;0.000;2023-05-13T18:58:33;96636.88;;;17.76;67.35
48774;BME280;34576;0.000;0.000;2023-05-13T19:05:33;96643.53;;;17.73;67.64
48774;BME280;34576;0.000;0.000;2023-05-13T19:12:34;96641.66;;;17.74;67.70
48774;BME280;34576;0.000;0.000;2023-05-13T19:19:34;96646.69;;;17.75;67.56
48774;BME280;34576;0.000;0.000;2023-05-13T19:26:34;96652.06;;;17.70;67.41
48774;BME280;34576;0.000;0.000;2023-05-13T19:33:35;96664.25;;;17.71;67.49
48774;BME280;34576;0.000;0.000;2023-05-13T19:40:38;96665.63;;;17.69;67.40
48774;BME280;34576;0.000;0.000;2023-05-13T19:47:38;96673.06;;;17.67;67.54
48774;BME280;34576;0.000;0.000;2023-05-13T19:54:38;96683.16;;;17.70;67.49
48774;BME280;34576;0.000;0.000;2023-05-13T20:01:39;96683.72;;;17.67;67.42
48774;BME280;34576;0.000;0.000;2023-05-13T20:08:39;96675.22;;;17.65;67.37
48774;BME280;34576;0.000;0.000;2023-05-13T20:15:40;96685.88;;;17.65;67.62
48774;BME280;34576;0.000;0.000;2023-05-13T20:22:41;96688.53;;;17.65;67.38
48774;BME280;34576;0.000;0.000;2023-05-13T20:29:42;96687.97;;;17.63;67.44
48774;BME280;34576;0.000;0.000;2023-05-13T20:36:42;96686.91;;;17.64;67.51
48774;BME280;34576;0.000;0.000;2023-05-13T20:43:43;96690.66;;;17.63;67.52
48774;BME280;34576;0.000;0.000;2023-05-13T20:50:43;96694.41;;;17.62;67.18
48774;BME280;34576;0.000;0.000;2023-05-13T20:57:43;96686.41;;;17.62;67.37
48774;BME280;34576;0.000;0.000;2023-05-13T21:04:44;96686.41;;;17.62;67.17
48774;BME280;34576;0.000;0.000;2023-05-13T21:11:44;96672.31;;;17.61;67.10
48774;BME280;34576;0.000;0.000;2023-05-13T21:18:44;96671.25;;;17.62;67.21
48774;BME280;34576;0.000;0.000;2023-05-13T21:25:45;96667.25;;;17.59;67.10
48774;BME280;34576;0.000;0.000;2023-05-13T21:32:45;96666.19;;;17.60;67.15
48774;BME280;34576;0.000;0.000;2023-05-13T21:39:45;96657.16;;;17.62;66.99
48774;BME280;34576;0.000;0.000;2023-05-13T21:46:46;96670.72;;;17.60;67.07
48774;BME280;34576;0.000;0.000;2023-05-13T21:53:46;96656.63;;;17.59;66.92
48774;BME280;34576;0.000;0.000;2023-05-13T22:00:46;96651.28;;;17.59;66.88
48774;BME280;34576;0.000;0.000;2023-05-13T22:07:47;96643.09;;;17.56;66.88
48774;BME280;34576;0.000;0.000;2023-05-13T22:14:47;96635.88;;;17.56;66.76
48774;BME280;34576;0.000;0.000;2023-05-13T22:21:47;96632.72;;;17.54;66.99
48774;BME280;34576;0.000;0.000;2023-05-13T22:28:47;96629.78;;;17.56;66.70
48774;BME280;34576;0.000;0.000;2023-05-13T22:35:48;96644.41;;;17.53;66.98
48774;BME280;34576;0.000;0.000;2023-05-13T22:42:48;96637.00;;;17.50;66.89
48774;BME280;34576;0.000;0.000;2023-05-13T22:49:48;96644.41;;;17.53;66.78
48774;BME280;34576;0.000;0.000;2023-05-13T22:56:48;96638.56;;;17.51;66.90
48774;BME280;34576;0.000;0.000;2023-05-13T23:03:49;96646.03;;;17.49;66.71
48774;BME280;34576;0.000;0.000;2023-05-13T23:10:49;96645.47;;;17.47;66.77
48774;BME280;34576;0.000;0.000;2023-05-13T23:17:50;96644.19;;;17.45;66.67
48774;BME280;34576;0.000;0.000;2023-05-13T23:24:50;96643.09;;;17.46;66.66
48774;BME280;34576;0.000;0.000;2023-05-13T23:31:50;96632.75;;;17.44;66.75
48774;BME280;34576;0.000;0.000;2023-05-13T23:38:50;96620.53;;;17.43;66.60
48774;BME280;34576;0.000;0.000;2023-05-13T23:45:51;96608.56;;;17.40;66.71
48774;BME280;34576;0.000;0.000;2023-05-13T23:52:51;96601.91;;;17.43;66.74
48774;BME280;34576;0.000;0.000;2023-05-13T23:59:51;96599.25;;;17.43;66.63
